createdAt,value
2018-08-12T00:00:19.776Z,8.77
2018-08-12T00:02:48.543Z,8.73
2018-08-12T00:05:17.183Z,7.70
2018-08-12T00:07:46.088Z,12.53
2018-08-12T00:10:14.928Z,11.67
2018-08-12T00:12:43.652Z,7.40
2018-08-12T00:15:16.070Z,12.83
2018-08-12T00:17:44.789Z,10.77
2018-08-12T00:20:16.923Z,8.97
2018-08-12T00:22:46.522Z,7.67
2018-08-12T00:25:16.640Z,6.00
2018-08-12T00:27:45.408Z,8.20
2018-08-12T00:30:16.128Z,12.87
2018-08-12T00:32:44.900Z,7.97
2018-08-12T00:35:14.866Z,8.07
2018-08-12T00:37:43.548Z,11.80
2018-08-12T00:40:14.018Z,10.93
2018-08-12T00:42:43.125Z,7.63
2018-08-12T00:45:15.839Z,8.80
2018-08-12T00:47:45.250Z,7.67
2018-08-12T00:50:14.867Z,6.97
2018-08-12T00:52:43.672Z,7.90
2018-08-12T00:55:14.605Z,6.67
2018-08-12T00:57:44.240Z,8.70
2018-08-12T01:00:20.578Z,9.10
2018-08-12T01:02:49.319Z,12.40
2018-08-12T01:05:19.055Z,9.90
2018-08-12T01:07:48.779Z,11.07
2018-08-12T01:10:18.205Z,10.47
2018-08-12T01:12:46.980Z,8.37
2018-08-12T01:15:21.507Z,6.93
2018-08-12T01:17:50.339Z,7.63
2018-08-12T01:20:25.120Z,8.40
2018-08-12T01:22:53.877Z,9.87
2018-08-12T01:25:22.907Z,9.80
2018-08-12T01:27:51.650Z,10.07
2018-08-12T01:30:21.480Z,10.30
2018-08-12T01:32:50.240Z,7.67
2018-08-12T01:35:19.070Z,9.17
2018-08-12T01:37:48.443Z,7.97
2018-08-12T01:40:17.945Z,8.40
2018-08-12T01:42:46.735Z,9.43
2018-08-12T01:45:17.670Z,7.43
2018-08-12T01:47:46.294Z,10.03
2018-08-12T01:50:16.603Z,10.90
2018-08-12T01:52:45.345Z,9.27
2018-08-12T01:55:14.142Z,9.67
2018-08-12T01:57:42.840Z,10.20
2018-08-12T02:00:17.388Z,11.20
2018-08-12T02:02:46.477Z,8.70
2018-08-12T02:05:15.742Z,14.27
2018-08-12T02:07:44.580Z,7.77
2018-08-12T02:10:13.322Z,10.23
2018-08-12T02:12:42.013Z,10.37
2018-08-12T02:15:11.443Z,7.50
2018-08-12T02:17:40.640Z,11.80
2018-08-12T02:20:10.350Z,14.87
2018-08-12T02:22:39.560Z,8.27
2018-08-12T02:25:08.948Z,8.67
2018-08-12T02:27:37.667Z,8.07
2018-08-12T02:30:08.796Z,10.87
2018-08-12T02:32:37.558Z,11.03
2018-08-12T02:35:06.512Z,10.43
2018-08-12T02:37:35.146Z,8.50
2018-08-12T02:40:05.468Z,10.40
2018-08-12T02:42:34.244Z,9.37
2018-08-12T02:45:03.531Z,12.67
2018-08-12T02:47:32.198Z,11.70
2018-08-12T02:50:00.821Z,11.70
2018-08-12T02:52:29.452Z,8.67
2018-08-12T02:54:58.086Z,8.73
2018-08-12T02:57:26.732Z,11.57
2018-08-12T02:59:55.402Z,13.87
2018-08-12T03:02:24.088Z,10.37
2018-08-12T03:04:52.709Z,17.83
2018-08-12T03:07:21.387Z,10.87
2018-08-12T03:09:49.987Z,10.07
2018-08-12T03:12:18.620Z,14.23
2018-08-12T03:14:47.200Z,9.50
2018-08-12T03:17:15.918Z,8.50
2018-08-12T03:19:44.533Z,8.67
2018-08-12T03:22:13.175Z,10.00
2018-08-12T03:24:41.830Z,10.77
2018-08-12T03:27:10.478Z,10.73
2018-08-12T03:29:39.191Z,14.30
2018-08-12T03:32:07.876Z,8.00
2018-08-12T03:34:36.536Z,9.43
2018-08-12T03:37:05.510Z,10.80
2018-08-12T03:39:34.173Z,7.93
2018-08-12T03:42:02.818Z,10.50
2018-08-12T03:44:31.478Z,12.40
2018-08-12T03:47:00.218Z,8.40
2018-08-12T03:49:28.888Z,11.43
2018-08-12T03:51:57.538Z,9.27
2018-08-12T03:54:26.300Z,11.83
2018-08-12T03:56:54.975Z,16.00
2018-08-12T03:59:23.685Z,12.37
2018-08-12T04:01:52.338Z,9.70
2018-08-12T04:04:21.098Z,8.30
2018-08-12T04:06:49.793Z,13.53
2018-08-12T04:09:18.488Z,9.37
2018-08-12T04:11:47.223Z,9.70
2018-08-12T04:14:15.961Z,8.70
2018-08-12T04:16:49.100Z,10.80
2018-08-12T04:19:17.839Z,10.20
2018-08-12T04:21:46.480Z,9.63
2018-08-12T04:24:15.158Z,10.87
2018-08-12T04:26:43.831Z,12.30
2018-08-12T04:29:12.405Z,11.53
2018-08-12T04:31:41.021Z,11.00
2018-08-12T04:34:09.738Z,14.57
2018-08-12T04:36:38.468Z,14.17
2018-08-12T04:39:10.806Z,11.77
2018-08-12T04:41:40.038Z,9.23
2018-08-12T04:44:08.708Z,12.30
2018-08-12T04:46:37.936Z,12.40
2018-08-12T04:49:07.723Z,11.50
2018-08-12T04:51:36.495Z,14.33
2018-08-12T04:54:05.712Z,15.37
2018-08-12T04:56:34.438Z,13.47
2018-08-12T04:59:03.238Z,12.03
2018-08-12T05:01:31.865Z,12.30
2018-08-12T05:04:00.562Z,7.70
2018-08-12T05:06:29.255Z,12.03
2018-08-12T05:08:57.902Z,9.80
2018-08-12T05:11:26.766Z,10.77
2018-08-12T05:13:55.502Z,10.00
2018-08-12T05:16:24.155Z,11.83
2018-08-12T05:18:52.810Z,17.20
2018-08-12T05:21:21.515Z,20.53
2018-08-12T05:23:50.166Z,47.57
2018-08-12T05:26:18.857Z,40.43
2018-08-12T05:28:47.510Z,24.90
2018-08-12T05:31:16.230Z,20.17
2018-08-12T05:33:44.883Z,11.17
2018-08-12T05:36:13.560Z,17.23
2018-08-12T05:38:42.130Z,14.20
2018-08-12T05:41:10.718Z,12.50
2018-08-12T05:43:39.393Z,10.23
2018-08-12T05:46:08.187Z,12.87
2018-08-12T05:48:36.860Z,11.53
2018-08-12T05:51:05.739Z,10.23
2018-08-12T05:53:34.384Z,12.37
2018-08-12T05:56:03.118Z,8.37
2018-08-12T05:58:31.825Z,11.70
2018-08-12T06:01:00.488Z,8.00
2018-08-12T06:03:29.230Z,7.73
2018-08-12T06:05:57.983Z,7.93
2018-08-12T06:08:26.708Z,8.87
2018-08-12T06:10:55.387Z,8.27
2018-08-12T06:13:24.090Z,7.40
2018-08-12T06:15:52.747Z,6.73
2018-08-12T06:18:21.491Z,8.68
2018-08-12T06:20:50.214Z,8.18
2018-08-12T06:23:19.704Z,7.35
2018-08-12T06:25:48.462Z,8.60
2018-08-12T06:28:17.137Z,9.93
2018-08-12T06:30:45.918Z,7.20
2018-08-12T06:33:14.980Z,7.77
2018-08-12T06:35:43.759Z,8.68
2018-08-12T06:38:12.436Z,10.33
2018-08-12T06:40:41.286Z,9.97
2018-08-12T06:43:09.976Z,10.23
2018-08-12T06:45:38.732Z,9.08
2018-08-12T06:48:07.530Z,8.03
2018-08-12T06:50:36.223Z,6.70
2018-08-12T06:53:04.963Z,11.73
2018-08-12T06:55:33.664Z,9.00
2018-08-12T06:58:02.428Z,6.28
2018-08-12T07:00:31.110Z,8.75
2018-08-12T07:02:59.741Z,5.20
2018-08-12T07:05:28.528Z,7.50
2018-08-12T07:07:57.253Z,8.53
2018-08-12T07:10:25.968Z,9.45
2018-08-12T07:12:54.713Z,7.60
2018-08-12T07:15:23.488Z,8.90
2018-08-12T07:17:52.259Z,8.53
2018-08-12T07:20:20.987Z,11.22
2018-08-12T07:22:49.819Z,10.88
2018-08-12T07:25:18.536Z,7.20
2018-08-12T07:27:47.293Z,8.50
2018-08-12T07:30:16.663Z,5.58
2018-08-12T07:32:45.380Z,8.13
2018-08-12T07:35:14.086Z,9.05
2018-08-12T07:37:42.923Z,9.53
2018-08-12T07:40:16.530Z,6.87
2018-08-12T07:42:45.848Z,8.03
2018-08-12T07:45:14.688Z,6.95
2018-08-12T07:47:43.823Z,8.75
2018-08-12T07:50:12.689Z,7.70
2018-08-12T07:52:42.836Z,8.70
2018-08-12T07:55:12.609Z,7.75
2018-08-12T07:57:42.391Z,7.72
2018-08-12T08:00:17.442Z,5.83
2018-08-12T08:02:46.446Z,6.03
2018-08-12T08:05:15.463Z,7.33
2018-08-12T08:07:45.449Z,5.70
2018-08-12T08:10:15.860Z,6.47
2018-08-12T08:12:44.878Z,7.95
2018-08-12T08:15:18.072Z,5.90
2018-08-12T08:17:47.099Z,3.55
2018-08-12T08:20:16.249Z,7.08
2018-08-12T08:22:45.311Z,6.25
2018-08-12T08:25:14.143Z,6.30
2018-08-12T08:27:42.930Z,4.50
2018-08-12T08:30:15.185Z,6.00
2018-08-12T08:32:44.133Z,4.55
2018-08-12T08:35:13.639Z,6.10
2018-08-12T08:37:42.940Z,6.95
2018-08-12T08:40:13.946Z,3.67
2018-08-12T08:42:42.698Z,6.62
2018-08-12T08:45:18.111Z,5.08
2018-08-12T08:47:48.057Z,6.22
2018-08-12T08:50:18.339Z,4.83
2018-08-12T08:52:47.191Z,7.55
2018-08-12T08:55:17.083Z,4.92
2018-08-12T08:57:46.394Z,4.17
2018-08-12T09:00:17.410Z,5.80
2018-08-12T09:02:47.547Z,4.62
2018-08-12T09:05:16.931Z,5.20
2018-08-12T09:07:45.803Z,7.53
2018-08-12T09:10:15.818Z,3.92
2018-08-12T09:12:44.658Z,4.35
2018-08-12T09:15:15.705Z,6.15
2018-08-12T09:17:45.055Z,5.78
2018-08-12T09:20:15.600Z,7.17
2018-08-12T09:22:44.508Z,5.80
2018-08-12T09:25:14.536Z,6.62
2018-08-12T09:27:43.330Z,7.00
2018-08-12T09:30:16.587Z,7.37
2018-08-12T09:32:46.143Z,8.65
2018-08-12T09:35:14.972Z,4.10
2018-08-12T09:37:43.841Z,5.42
2018-08-12T09:40:14.950Z,6.25
2018-08-12T09:42:44.510Z,5.85
2018-08-12T09:45:15.913Z,6.33
2018-08-12T09:47:44.930Z,6.50
2018-08-12T09:50:17.733Z,3.85
2018-08-12T09:52:47.367Z,5.60
2018-08-12T09:55:16.748Z,5.78
2018-08-12T09:57:45.531Z,5.17
2018-08-12T10:00:21.814Z,6.97
2018-08-12T10:02:52.413Z,3.52
2018-08-12T10:05:21.455Z,7.90
2018-08-12T10:07:50.360Z,3.83
2018-08-12T10:10:19.608Z,5.22
2018-08-12T10:12:48.431Z,5.40
2018-08-12T10:15:17.710Z,5.05
2018-08-12T10:17:52.422Z,4.72
2018-08-12T10:20:21.475Z,8.38
2018-08-12T10:22:50.763Z,5.62
2018-08-12T10:25:19.681Z,5.42
2018-08-12T10:27:48.438Z,3.95
2018-08-12T10:30:17.151Z,4.67
2018-08-12T10:32:46.054Z,4.03
2018-08-12T10:35:16.280Z,5.08
2018-08-12T10:37:45.694Z,5.47
2018-08-12T10:40:18.821Z,7.55
2018-08-12T10:42:48.438Z,5.67
2018-08-12T10:45:17.841Z,5.47
2018-08-12T10:47:47.681Z,7.58
2018-08-12T10:50:18.293Z,6.25
2018-08-12T10:52:47.781Z,10.15
2018-08-12T10:55:19.196Z,5.42
2018-08-12T10:57:48.414Z,8.13
2018-08-12T11:00:24.954Z,4.80
2018-08-12T11:02:54.262Z,5.58
2018-08-12T11:05:23.170Z,3.83
2018-08-12T11:07:53.648Z,5.20
2018-08-12T11:10:22.748Z,6.22
2018-08-12T11:12:51.492Z,6.55
2018-08-12T11:15:20.329Z,5.45
2018-08-12T11:17:49.161Z,5.75
2018-08-12T11:20:18.107Z,4.25
2018-08-12T11:22:46.816Z,5.25
2018-08-12T11:25:15.573Z,4.53
2018-08-12T11:27:44.379Z,7.00
2018-08-12T11:30:16.203Z,7.58
2018-08-12T11:32:45.199Z,4.70
2018-08-12T11:35:16.243Z,5.78
2018-08-12T11:37:45.333Z,5.53
2018-08-12T11:40:15.076Z,6.10
2018-08-12T11:42:43.933Z,4.65
2018-08-12T11:45:16.376Z,5.08
2018-08-12T11:47:46.394Z,7.40
2018-08-12T11:50:16.251Z,6.15
2018-08-12T11:52:45.474Z,7.03
2018-08-12T11:55:17.320Z,6.87
2018-08-12T11:57:46.180Z,4.47
2018-08-12T12:00:18.493Z,6.17
2018-08-12T12:02:48.683Z,4.58
2018-08-12T12:05:17.601Z,4.45
2018-08-12T12:07:46.343Z,7.15
2018-08-12T12:10:18.791Z,6.08
2018-08-12T12:12:48.976Z,4.67
2018-08-12T12:15:17.860Z,9.05
2018-08-12T12:17:47.978Z,5.17
2018-08-12T12:20:17.517Z,4.78
2018-08-12T12:22:46.806Z,4.25
2018-08-12T12:25:16.931Z,5.08
2018-08-12T12:27:45.723Z,5.35
2018-08-12T12:30:16.631Z,4.90
2018-08-12T12:32:46.717Z,8.08
2018-08-12T12:35:16.523Z,5.20
2018-08-12T12:37:45.508Z,4.80
2018-08-12T12:40:16.368Z,5.12
2018-08-12T12:42:45.771Z,6.92
2018-08-12T12:45:15.151Z,4.78
2018-08-12T12:47:45.233Z,4.53
2018-08-12T12:50:20.786Z,5.53
2018-08-12T12:52:51.276Z,6.87
2018-08-12T12:55:21.204Z,4.20
2018-08-12T12:57:50.128Z,5.83
2018-08-12T13:00:20.152Z,3.65
2018-08-12T13:02:49.594Z,6.58
2018-08-12T13:05:19.637Z,5.03
2018-08-12T13:07:49.078Z,4.17
2018-08-12T13:10:18.950Z,5.72
2018-08-12T13:12:47.890Z,4.33
2018-08-12T13:15:17.604Z,5.45
2018-08-12T13:17:46.854Z,5.20
2018-08-12T13:20:17.472Z,11.05
2018-08-12T13:22:48.387Z,4.90
2018-08-12T13:25:19.484Z,4.97
2018-08-12T13:27:48.380Z,6.10
2018-08-12T13:30:18.129Z,6.37
2018-08-12T13:32:47.688Z,6.78
2018-08-12T13:35:16.639Z,4.83
2018-08-12T13:37:45.416Z,8.10
2018-08-12T13:40:15.947Z,7.53
2018-08-12T13:42:45.379Z,4.22
2018-08-12T13:45:14.971Z,7.30
2018-08-12T13:47:45.055Z,11.22
2018-08-12T13:50:22.363Z,5.40
2018-08-12T13:52:51.741Z,4.00
2018-08-12T13:55:21.362Z,5.87
2018-08-12T13:57:51.046Z,4.10
2018-08-12T14:00:21.437Z,6.42
2018-08-12T14:02:51.031Z,6.00
2018-08-12T14:05:20.250Z,5.55
2018-08-12T14:07:49.652Z,4.03
2018-08-12T14:10:18.644Z,4.55
2018-08-12T14:12:47.504Z,5.40
2018-08-12T14:15:17.785Z,4.42
2018-08-12T14:17:47.752Z,5.60
2018-08-12T14:20:18.158Z,4.83
2018-08-12T14:22:46.979Z,5.72
2018-08-12T14:25:16.244Z,4.85
2018-08-12T14:27:46.262Z,5.25
2018-08-12T14:30:17.620Z,5.85
2018-08-12T14:32:47.211Z,4.00
2018-08-12T14:35:15.989Z,5.45
2018-08-12T14:37:44.920Z,5.50
2018-08-12T14:40:14.313Z,7.05
2018-08-12T14:42:43.323Z,4.30
2018-08-12T14:45:14.989Z,4.83
2018-08-12T14:47:44.226Z,6.45
2018-08-12T14:50:17.696Z,6.67
2018-08-12T14:52:46.758Z,4.83
2018-08-12T14:55:17.814Z,7.45
2018-08-12T14:57:46.829Z,6.53
2018-08-12T15:00:19.572Z,8.53
2018-08-12T15:02:49.674Z,6.65
2018-08-12T15:05:19.061Z,10.28
2018-08-12T15:07:48.092Z,4.15
2018-08-12T15:10:17.036Z,4.85
2018-08-12T15:12:45.770Z,4.35
2018-08-12T15:15:16.160Z,4.40
2018-08-12T15:17:45.853Z,5.12
2018-08-12T15:20:15.719Z,5.30
2018-08-12T15:22:44.775Z,4.33
2018-08-12T15:25:21.471Z,6.12
2018-08-12T15:27:50.622Z,6.12
2018-08-12T15:30:19.513Z,6.25
2018-08-12T15:32:48.389Z,4.87
2018-08-12T15:35:17.261Z,6.28
2018-08-12T15:37:46.183Z,5.78
2018-08-12T15:40:15.733Z,5.37
2018-08-12T15:42:44.769Z,4.25
2018-08-12T15:45:15.203Z,5.50
2018-08-12T15:47:45.086Z,4.87
2018-08-12T15:50:14.963Z,6.35
2018-08-12T15:52:44.814Z,6.85
2018-08-12T15:55:13.815Z,5.47
2018-08-12T15:57:43.273Z,4.97
2018-08-12T16:00:16.610Z,5.67
2018-08-12T16:02:45.591Z,5.17
2018-08-12T16:05:14.768Z,4.78
2018-08-12T16:07:44.624Z,5.85
2018-08-12T16:10:18.889Z,6.83
2018-08-12T16:12:49.659Z,6.72
2018-08-12T16:15:18.637Z,5.97
2018-08-12T16:17:47.838Z,7.83
2018-08-12T16:20:17.205Z,6.58
2018-08-12T16:22:46.040Z,7.50
2018-08-12T16:25:17.590Z,6.37
2018-08-12T16:27:46.848Z,6.90
2018-08-12T16:30:17.217Z,9.08
2018-08-12T16:32:46.555Z,5.00
2018-08-12T16:35:16.376Z,7.35
2018-08-12T16:37:46.425Z,6.42
2018-08-12T16:40:19.147Z,7.60
2018-08-12T16:42:48.562Z,7.72
2018-08-12T16:45:18.073Z,7.40
2018-08-12T16:47:47.780Z,6.05
2018-08-12T16:50:16.509Z,5.87
2018-08-12T16:52:46.320Z,4.85
2018-08-12T16:55:17.109Z,6.15
2018-08-12T16:57:46.736Z,7.83
2018-08-12T17:00:19.512Z,6.55
2018-08-12T17:02:48.658Z,11.25
2018-08-12T17:05:20.105Z,10.20
2018-08-12T17:07:49.976Z,7.97
2018-08-12T17:10:20.434Z,7.83
2018-08-12T17:12:49.210Z,8.18
2018-08-12T17:15:19.596Z,9.50
2018-08-12T17:17:48.922Z,5.28
2018-08-12T17:20:19.323Z,9.80
2018-08-12T17:22:49.413Z,5.75
2018-08-12T17:25:18.258Z,6.62
2018-08-12T17:27:47.177Z,7.25
2018-08-12T17:30:17.138Z,8.18
2018-08-12T17:32:46.061Z,9.48
2018-08-12T17:35:16.055Z,7.78
2018-08-12T17:37:45.436Z,8.20
2018-08-12T17:40:15.488Z,6.75
2018-08-12T17:42:44.215Z,7.22
2018-08-12T17:45:13.941Z,5.00
2018-08-12T17:47:43.048Z,9.60
2018-08-12T17:50:13.594Z,6.25
2018-08-12T17:52:43.399Z,11.60
2018-08-12T17:55:12.348Z,7.47
2018-08-12T17:57:41.718Z,10.58
2018-08-12T18:00:14.708Z,7.90
2018-08-12T18:02:43.616Z,9.78
2018-08-12T18:05:12.445Z,7.58
2018-08-12T18:07:41.811Z,10.63
2018-08-12T18:10:10.484Z,6.67
2018-08-12T18:12:40.178Z,6.60
2018-08-12T18:15:10.372Z,8.98
2018-08-12T18:17:39.573Z,8.65
2018-08-12T18:20:08.688Z,5.53
2018-08-12T18:22:37.592Z,8.10
2018-08-12T18:25:08.921Z,7.90
2018-08-12T18:27:37.682Z,9.73
2018-08-12T18:30:11.136Z,8.70
2018-08-12T18:32:40.071Z,8.50
2018-08-12T18:35:09.856Z,8.00
2018-08-12T18:37:38.972Z,7.97
2018-08-12T18:40:09.623Z,9.85
2018-08-12T18:42:38.668Z,7.70
2018-08-12T18:45:07.583Z,7.00
2018-08-12T18:47:36.447Z,6.90
2018-08-12T18:50:07.186Z,7.60
2018-08-12T18:52:36.344Z,6.53
2018-08-12T18:55:07.210Z,8.37
2018-08-12T18:57:35.983Z,8.75
2018-08-12T19:00:06.591Z,9.50
2018-08-12T19:02:35.291Z,7.05
2018-08-12T19:05:05.247Z,8.65
2018-08-12T19:07:34.060Z,11.33
2018-08-12T19:10:02.786Z,5.85
2018-08-12T19:12:31.459Z,8.45
2018-08-12T19:15:00.227Z,7.27
2018-08-12T19:17:28.972Z,8.25
2018-08-12T19:19:58.490Z,8.08
2018-08-12T19:22:27.180Z,6.95
2018-08-12T19:24:55.915Z,8.53
2018-08-12T19:27:24.680Z,7.33
2018-08-12T19:29:54.193Z,8.70
2018-08-12T19:32:22.973Z,6.08
2018-08-12T19:34:52.223Z,10.47
2018-08-12T19:37:21.031Z,11.95
2018-08-12T19:39:49.715Z,10.88
2018-08-12T19:42:18.413Z,7.47
2018-08-12T19:44:47.228Z,10.13
2018-08-12T19:47:16.026Z,9.43
2018-08-12T19:49:44.917Z,6.13
2018-08-12T19:52:14.331Z,8.07
2018-08-12T19:54:43.079Z,9.07
2018-08-12T19:57:12.258Z,12.17
2018-08-12T19:59:41.048Z,11.97
2018-08-12T20:02:09.758Z,9.47
2018-08-12T20:04:38.481Z,7.87
2018-08-12T20:07:07.436Z,10.80
2018-08-12T20:09:36.136Z,7.60
2018-08-12T20:12:05.190Z,10.43
2018-08-12T20:14:33.941Z,6.63
2018-08-12T20:17:02.673Z,8.57
2018-08-12T20:19:31.453Z,8.45
2018-08-12T20:22:00.298Z,7.73
2018-08-12T20:24:29.011Z,8.97
2018-08-12T20:26:58.313Z,11.57
2018-08-12T20:29:27.010Z,10.63
2018-08-12T20:32:01.469Z,9.13
2018-08-12T20:34:30.211Z,10.67
2018-08-12T20:36:59.798Z,10.00
2018-08-12T20:39:28.861Z,10.13
2018-08-12T20:41:57.679Z,10.70
2018-08-12T20:44:26.640Z,8.90
2018-08-12T20:46:55.366Z,9.30
2018-08-12T20:49:24.186Z,11.30
2018-08-12T20:51:53.026Z,9.90
2018-08-12T20:54:22.285Z,11.63
2018-08-12T20:56:51.244Z,12.57
2018-08-12T20:59:20.263Z,13.47
2018-08-12T21:01:49.053Z,7.57
2018-08-12T21:04:17.826Z,8.80
2018-08-12T21:06:46.647Z,14.30
2018-08-12T21:09:15.517Z,11.17
2018-08-12T21:11:45.964Z,10.73
2018-08-12T21:14:14.706Z,11.73
2018-08-12T21:16:43.993Z,9.90
2018-08-12T21:19:12.801Z,14.00
2018-08-12T21:21:41.602Z,11.73
2018-08-12T21:24:10.314Z,14.80
2018-08-12T21:26:39.047Z,10.40
2018-08-12T21:29:07.866Z,8.30
2018-08-12T21:31:36.668Z,13.60
2018-08-12T21:34:06.137Z,13.50
2018-08-12T21:36:34.990Z,13.87
2018-08-12T21:39:06.853Z,12.13
2018-08-12T21:41:35.715Z,11.17
2018-08-12T21:44:06.068Z,10.23
2018-08-12T21:46:35.042Z,11.67
2018-08-12T21:49:04.940Z,12.07
2018-08-12T21:51:34.374Z,13.80
2018-08-12T21:54:03.887Z,10.93
2018-08-12T21:56:33.558Z,10.43
2018-08-12T21:59:02.504Z,9.83
2018-08-12T22:01:31.422Z,16.03
2018-08-12T22:04:00.297Z,12.93
2018-08-12T22:06:29.063Z,11.53
2018-08-12T22:08:57.833Z,12.33
2018-08-12T22:11:26.639Z,15.90
2018-08-12T22:13:55.348Z,11.17
2018-08-12T22:16:24.143Z,11.37
2018-08-12T22:18:52.934Z,13.00
2018-08-12T22:21:21.657Z,11.60
2018-08-12T22:23:50.393Z,10.40
2018-08-12T22:26:19.244Z,13.23
2018-08-12T22:28:47.901Z,11.67
2018-08-12T22:31:16.626Z,12.47
2018-08-12T22:33:45.439Z,12.10
2018-08-12T22:36:14.304Z,11.47
2018-08-12T22:38:44.144Z,11.10
2018-08-12T22:41:13.459Z,13.47
2018-08-12T22:43:42.196Z,13.10
2018-08-12T22:46:10.891Z,13.63
2018-08-12T22:48:39.651Z,13.67
2018-08-12T22:51:09.168Z,16.57
2018-08-12T22:53:38.086Z,14.17
2018-08-12T22:56:06.855Z,19.47
2018-08-12T22:58:35.828Z,12.23
2018-08-12T23:01:06.103Z,12.90
2018-08-12T23:03:34.811Z,13.80
2018-08-12T23:06:03.676Z,13.03
2018-08-12T23:08:33.344Z,13.23
2018-08-12T23:11:02.064Z,15.07
2018-08-12T23:13:30.849Z,16.87
2018-08-12T23:16:18.534Z,14.47
2018-08-12T23:18:47.343Z,12.30
2018-08-12T23:21:17.100Z,10.93
2018-08-12T23:23:47.348Z,14.33
2018-08-12T23:26:17.370Z,15.20
2018-08-12T23:28:46.246Z,13.73
2018-08-12T23:31:15.006Z,17.50
2018-08-12T23:33:43.728Z,13.93
2018-08-12T23:36:12.758Z,13.60
2018-08-12T23:38:41.603Z,12.27
2018-08-12T23:41:11.091Z,13.17
2018-08-12T23:43:40.804Z,15.20
2018-08-12T23:46:10.600Z,14.83
2018-08-12T23:48:39.415Z,14.07
2018-08-12T23:51:08.498Z,14.73
2018-08-12T23:53:37.226Z,16.03
2018-08-12T23:56:06.573Z,15.30
2018-08-12T23:58:35.274Z,18.40
